createdAt,value
2023-01-28T05:00:30.000Z,11.87
2023-01-28T05:03:01.632Z,10.07
2023-01-28T05:05:33.258Z,9.83
2023-01-28T05:08:05.541Z,10.97
2023-01-28T05:10:37.165Z,9.33
2023-01-28T05:13:08.837Z,8.40
2023-01-28T05:15:41.936Z,9.33
2023-01-28T05:18:13.581Z,8.60
2023-01-28T05:20:45.200Z,10.20
2023-01-28T05:23:16.865Z,11.97
2023-01-28T05:25:48.535Z,11.47
2023-01-28T05:28:20.197Z,9.97
2023-01-28T05:30:53.165Z,12.53
2023-01-28T05:33:24.844Z,11.17
2023-01-28T05:35:56.483Z,12.53
2023-01-28T05:38:28.114Z,11.53
2023-01-28T05:40:59.759Z,11.07
2023-01-28T05:43:31.424Z,12.53
2023-01-28T05:46:04.802Z,11.13
2023-01-28T05:48:36.542Z,14.03
2023-01-28T05:51:08.200Z,11.23
2023-01-28T05:53:39.864Z,14.00
2023-01-28T05:56:11.499Z,9.20
2023-01-28T05:58:43.463Z,12.23
2023-01-28T06:01:16.452Z,11.50
2023-01-28T06:03:48.121Z,13.20
2023-01-28T06:06:19.764Z,9.97
2023-01-28T06:08:51.415Z,13.97
2023-01-28T06:11:23.044Z,12.50
2023-01-28T06:13:54.710Z,9.93
2023-01-28T06:16:27.725Z,8.53
2023-01-28T06:18:59.575Z,8.97
2023-01-28T06:21:31.233Z,7.97
2023-01-28T06:24:02.926Z,9.80
2023-01-28T06:26:34.583Z,10.63
2023-01-28T06:29:06.351Z,11.47
2023-01-28T06:31:39.334Z,11.73
2023-01-28T06:34:11.063Z,12.67
2023-01-28T06:36:42.731Z,15.07
2023-01-28T06:39:14.372Z,9.83
2023-01-28T06:41:46.004Z,10.10
2023-01-28T06:44:17.664Z,15.80
2023-01-28T06:46:50.657Z,14.23
2023-01-28T06:49:22.344Z,17.00
2023-01-28T06:51:54.001Z,19.63
2023-01-28T06:54:25.635Z,19.67
2023-01-28T06:56:57.281Z,22.17
2023-01-28T06:59:28.956Z,21.03
2023-01-28T07:02:01.995Z,22.77
2023-01-28T07:04:35.747Z,19.83
2023-01-28T07:07:07.393Z,24.97
2023-01-28T07:09:39.061Z,20.27
2023-01-28T07:12:10.712Z,19.20
2023-01-28T07:14:42.346Z,19.17
2023-01-28T07:17:15.401Z,20.40
2023-01-28T07:19:47.094Z,20.63
2023-01-28T07:22:18.725Z,18.27
2023-01-28T07:24:50.372Z,19.20
2023-01-28T07:27:22.007Z,24.03
2023-01-28T07:29:53.692Z,19.20
2023-01-28T07:32:26.712Z,19.70
2023-01-28T07:34:58.391Z,18.87
2023-01-28T07:37:30.002Z,19.67
2023-01-28T07:40:01.635Z,18.60
2023-01-28T07:42:33.291Z,20.60
2023-01-28T07:45:05.739Z,19.60
2023-01-28T07:47:38.681Z,19.23
2023-01-28T07:50:10.966Z,22.33
2023-01-28T07:52:42.603Z,21.70
2023-01-28T07:55:14.442Z,20.20
2023-01-28T07:57:52.576Z,24.67
2023-01-28T08:00:24.735Z,23.27
2023-01-28T08:02:57.961Z,23.70
2023-01-28T08:05:32.852Z,22.60
2023-01-28T08:08:04.947Z,21.40
2023-01-28T08:10:36.570Z,18.23
2023-01-28T08:13:09.413Z,16.03
2023-01-28T08:15:41.094Z,16.77
2023-01-28T08:18:14.877Z,18.70
2023-01-28T08:20:46.494Z,16.27
2023-01-28T08:23:18.889Z,17.27
2023-01-28T08:25:50.503Z,19.70
2023-01-28T08:28:22.162Z,13.20
2023-01-28T08:30:53.939Z,15.90
2023-01-28T08:33:27.115Z,12.60
2023-01-28T08:35:58.750Z,10.60
2023-01-28T08:38:30.398Z,13.87
2023-01-28T08:41:02.024Z,13.97
2023-01-28T08:43:33.686Z,13.00
2023-01-28T08:46:05.841Z,14.47
2023-01-28T08:48:38.823Z,24.00
2023-01-28T08:51:10.419Z,13.63
2023-01-28T08:53:42.107Z,13.37
2023-01-28T08:56:13.740Z,14.53
2023-01-28T08:58:45.390Z,12.47
2023-01-28T09:01:17.048Z,12.63
2023-01-28T09:03:50.110Z,12.80
2023-01-28T09:06:21.765Z,13.63
2023-01-28T09:08:56.203Z,12.40
2023-01-28T09:11:27.821Z,11.43
2023-01-28T09:13:59.452Z,17.20
2023-01-28T09:16:31.100Z,12.40
2023-01-28T09:19:04.095Z,11.97
2023-01-28T09:21:35.710Z,13.60
2023-01-28T09:24:10.809Z,11.57
2023-01-28T09:26:42.430Z,10.70
2023-01-28T09:29:14.070Z,14.97
2023-01-28T09:31:45.730Z,13.40
2023-01-28T09:34:18.743Z,12.87
2023-01-28T09:36:50.361Z,14.37
2023-01-28T09:39:21.979Z,15.80
2023-01-28T09:41:57.491Z,20.20
2023-01-28T09:44:37.085Z,12.43
2023-01-28T09:47:12.056Z,17.17
2023-01-28T09:49:47.396Z,11.10
2023-01-28T09:52:19.700Z,17.97
2023-01-28T09:54:53.043Z,19.03
2023-01-28T09:57:25.695Z,20.63
2023-01-28T09:59:57.323Z,21.47
2023-01-28T10:02:41.156Z,20.27
2023-01-28T10:05:17.873Z,24.07
2023-01-28T10:07:53.550Z,21.80
2023-01-28T10:10:26.935Z,26.67
2023-01-28T10:13:03.796Z,27.17
2023-01-28T10:15:54.187Z,33.63
2023-01-28T10:18:31.047Z,25.43
2023-01-28T10:21:07.800Z,27.77
2023-01-28T10:23:48.265Z,30.73
2023-01-28T10:26:23.086Z,24.97
2023-01-28T10:28:56.260Z,25.13
2023-01-28T10:31:31.387Z,30.20
2023-01-28T10:34:03.196Z,24.87
2023-01-28T10:36:36.160Z,27.97
2023-01-28T10:39:08.982Z,23.97
2023-01-28T10:41:56.437Z,21.50
2023-01-28T10:44:32.701Z,17.77
2023-01-28T10:47:07.097Z,18.50
2023-01-28T10:49:41.248Z,21.17
2023-01-28T10:52:15.084Z,21.07
2023-01-28T10:54:46.729Z,21.43
2023-01-28T10:57:18.362Z,19.73
2023-01-28T10:59:50.041Z,21.30
2023-01-28T11:02:31.915Z,19.83
2023-01-28T11:05:05.906Z,21.47
2023-01-28T11:07:38.881Z,20.97
2023-01-28T11:10:27.292Z,23.47
2023-01-28T11:12:59.546Z,23.60
2023-01-28T11:15:31.508Z,19.77
2023-01-28T11:18:04.396Z,20.63
2023-01-28T11:20:38.152Z,20.53
2023-01-28T11:23:18.370Z,21.43
2023-01-28T11:25:49.972Z,23.53
2023-01-28T11:28:21.616Z,24.87
2023-01-28T11:30:53.701Z,22.37
2023-01-28T11:33:28.841Z,25.17
2023-01-28T11:36:05.801Z,22.73
2023-01-28T11:38:47.917Z,21.03
2023-01-28T11:41:23.344Z,20.00
2023-01-28T11:43:55.072Z,21.77
2023-01-28T11:46:41.534Z,23.43
2023-01-28T11:49:16.855Z,21.13
2023-01-28T11:51:52.232Z,21.23
2023-01-28T11:54:31.931Z,21.93
2023-01-28T11:57:07.572Z,22.27
2023-01-28T11:59:46.114Z,22.50
2023-01-28T12:02:25.527Z,21.37
2023-01-28T12:05:07.231Z,21.60
2023-01-28T12:07:40.631Z,19.43
2023-01-28T12:10:39.201Z,15.43
2023-01-28T12:13:22.907Z,22.03
2023-01-28T12:16:18.886Z,20.10
2023-01-28T12:19:08.386Z,19.93
2023-01-28T12:21:49.048Z,21.37
2023-01-28T12:24:25.330Z,24.90
2023-01-28T12:27:01.161Z,18.90
2023-01-28T12:29:36.044Z,22.07
2023-01-28T12:32:29.860Z,21.73
2023-01-28T12:35:06.831Z,20.20
2023-01-28T12:37:42.448Z,22.20
2023-01-28T12:40:19.186Z,20.80
2023-01-28T12:42:53.450Z,20.40
2023-01-28T12:45:25.782Z,20.13
2023-01-28T12:47:59.820Z,23.30
2023-01-28T12:50:32.316Z,23.47
2023-01-28T12:53:06.250Z,22.37
2023-01-28T12:55:39.315Z,22.73
2023-01-28T12:58:16.332Z,21.37
2023-01-28T13:00:49.275Z,19.80
2023-01-28T13:03:22.129Z,20.00
2023-01-28T13:05:54.638Z,20.47
2023-01-28T13:08:26.964Z,21.37
2023-01-28T13:10:59.541Z,23.53
2023-01-28T13:13:33.187Z,22.40
2023-01-28T13:16:05.631Z,22.67
2023-01-28T13:18:43.594Z,18.53
2023-01-28T13:21:16.850Z,21.53
2023-01-28T13:23:49.330Z,23.43
2023-01-28T13:26:29.043Z,21.13
2023-01-28T13:29:09.401Z,23.23
2023-01-28T13:31:41.701Z,19.23
2023-01-28T13:34:26.217Z,22.83
2023-01-28T13:36:58.035Z,18.57
2023-01-28T13:39:29.750Z,21.90
2023-01-28T13:42:23.826Z,19.53
2023-01-28T13:44:56.919Z,23.80
2023-01-28T13:47:30.925Z,19.57
2023-01-28T13:50:04.458Z,23.77
2023-01-28T13:52:37.586Z,22.00
2023-01-28T13:55:26.828Z,20.17
2023-01-28T13:58:38.153Z,19.50
2023-01-28T14:01:25.654Z,20.27
2023-01-28T14:04:30.920Z,20.50
2023-01-28T14:07:24.391Z,21.40
2023-01-28T14:10:12.043Z,19.60
2023-01-28T14:12:53.361Z,19.63
2023-01-28T14:15:36.281Z,19.73
2023-01-28T14:18:14.005Z,19.13
2023-01-28T14:20:45.692Z,19.13
2023-01-28T14:23:18.048Z,17.90
2023-01-28T14:25:58.550Z,21.13
2023-01-28T14:28:47.111Z,19.87
2023-01-28T14:31:23.225Z,19.47
2023-01-28T14:33:55.139Z,18.43
2023-01-28T14:36:26.760Z,15.70
2023-01-28T14:38:58.406Z,18.13
2023-01-28T14:41:31.410Z,18.80
2023-01-28T14:44:03.066Z,21.07
2023-01-28T14:46:36.905Z,20.57
2023-01-28T14:49:19.825Z,21.30
2023-01-28T14:52:04.274Z,21.63
2023-01-28T14:54:40.795Z,23.87
2023-01-28T14:57:31.979Z,32.93
2023-01-28T15:00:04.421Z,23.67
2023-01-28T15:02:36.082Z,24.33
2023-01-28T15:05:08.487Z,23.23
2023-01-28T15:07:43.090Z,25.17
2023-01-28T15:10:16.998Z,23.07
2023-01-28T15:12:52.300Z,26.60
2023-01-28T15:15:28.186Z,26.63
2023-01-28T15:18:01.903Z,25.03
2023-01-28T15:20:33.548Z,24.87
2023-01-28T15:23:06.646Z,25.13
2023-01-28T15:25:38.299Z,23.47
2023-01-28T15:28:15.148Z,23.63
2023-01-28T15:30:46.868Z,23.43
2023-01-28T15:33:20.931Z,21.67
2023-01-28T15:35:53.041Z,24.13
2023-01-28T15:38:26.747Z,26.87
2023-01-28T15:41:00.325Z,25.97
2023-01-28T15:43:34.122Z,26.47
2023-01-28T15:46:10.001Z,27.83
2023-01-28T15:48:42.468Z,27.03
2023-01-28T15:51:18.681Z,25.40
2023-01-28T15:53:51.236Z,31.07
2023-01-28T15:56:25.076Z,27.53
2023-01-28T15:59:09.992Z,22.37
2023-01-28T16:01:41.641Z,26.57
2023-01-28T16:04:23.297Z,27.93
2023-01-28T16:06:55.149Z,26.03
2023-01-28T16:09:28.006Z,29.70
2023-01-28T16:12:03.060Z,31.00
2023-01-28T16:14:39.361Z,35.40
2023-01-28T16:17:11.006Z,31.60
2023-01-28T16:19:43.946Z,29.67
2023-01-28T16:22:19.659Z,32.07
2023-01-28T16:24:51.913Z,29.00
2023-01-28T16:27:24.203Z,32.13
2023-01-28T16:29:57.298Z,43.50
2023-01-28T16:32:30.273Z,35.43
2023-01-28T16:35:02.052Z,31.67
2023-01-28T16:37:33.694Z,36.60
2023-01-28T16:40:06.693Z,38.57
2023-01-28T16:42:38.579Z,39.00
2023-01-28T16:45:14.685Z,40.00
2023-01-28T16:47:46.498Z,38.60
2023-01-28T16:50:18.421Z,33.07
2023-01-28T16:52:51.426Z,33.43
2023-01-28T16:55:23.081Z,37.47
2023-01-28T16:57:55.782Z,41.13
2023-01-28T17:00:28.855Z,36.70
2023-01-28T17:03:00.529Z,37.33
2023-01-28T17:05:32.221Z,38.67
2023-01-28T17:08:03.954Z,38.87
2023-01-28T17:10:35.697Z,37.33
2023-01-28T17:13:07.340Z,39.30
2023-01-28T17:15:40.349Z,37.30
2023-01-28T17:18:12.080Z,37.30
2023-01-28T17:20:43.719Z,40.63
2023-01-28T17:23:15.822Z,39.10
2023-01-28T17:25:47.447Z,43.33
2023-01-28T17:28:19.116Z,38.57
2023-01-28T17:30:52.134Z,40.90
2023-01-28T17:33:23.817Z,36.13
2023-01-28T17:35:57.265Z,36.93
2023-01-28T17:38:29.398Z,37.47
2023-01-28T17:41:01.788Z,35.77
2023-01-28T17:43:33.549Z,35.50
2023-01-28T17:46:12.121Z,35.43
2023-01-28T17:48:43.923Z,36.53
2023-01-28T17:51:15.720Z,40.17
2023-01-28T17:53:47.445Z,40.53
2023-01-28T17:56:19.697Z,37.00
2023-01-28T17:58:51.515Z,45.83
2023-01-28T18:01:25.456Z,39.87
2023-01-28T18:03:57.822Z,39.40
2023-01-28T18:06:32.460Z,40.43
2023-01-28T18:09:04.301Z,40.87
2023-01-28T18:11:35.976Z,42.43
2023-01-28T18:14:07.726Z,42.27
2023-01-28T18:16:41.823Z,42.47
2023-01-28T18:19:13.523Z,45.20
2023-01-28T18:21:53.050Z,44.80
2023-01-28T18:24:25.944Z,45.93
2023-01-28T18:26:58.294Z,45.23
2023-01-28T18:29:30.713Z,50.70
2023-01-28T18:32:04.268Z,48.33
2023-01-28T18:34:36.095Z,46.70
2023-01-28T18:37:07.753Z,46.47
2023-01-28T18:39:39.433Z,48.73
2023-01-28T18:42:11.087Z,47.97
2023-01-28T18:44:42.798Z,48.10
2023-01-28T18:47:15.850Z,46.70
2023-01-28T18:49:47.547Z,49.57
2023-01-28T18:52:19.203Z,46.13
2023-01-28T18:54:51.062Z,55.43
2023-01-28T18:57:22.714Z,46.63
2023-01-28T18:59:54.407Z,45.13
2023-01-28T19:02:27.484Z,52.87
2023-01-28T19:04:59.194Z,50.47
2023-01-28T19:07:30.915Z,48.47
2023-01-28T19:10:02.824Z,50.07
2023-01-28T19:12:34.475Z,46.20
2023-01-28T19:15:07.608Z,52.50
2023-01-28T19:17:40.652Z,50.07
2023-01-28T19:20:12.697Z,50.77
2023-01-28T19:22:44.370Z,54.57
2023-01-28T19:25:16.766Z,51.67
2023-01-28T19:27:48.642Z,52.67
2023-01-28T19:30:20.444Z,52.20
2023-01-28T19:32:53.464Z,58.87
2023-01-28T19:35:25.219Z,52.33
2023-01-28T19:37:56.872Z,56.63
2023-01-28T19:40:28.535Z,51.47
2023-01-28T19:43:00.211Z,59.90
2023-01-28T19:45:31.898Z,63.50
2023-01-28T19:48:05.299Z,57.90
2023-01-28T19:50:36.970Z,57.17
2023-01-28T19:53:08.604Z,61.93
2023-01-28T19:55:40.265Z,64.33
2023-01-28T19:58:11.912Z,63.53
2023-01-28T20:00:43.866Z,60.43
2023-01-28T20:03:16.887Z,71.50
2023-01-28T20:05:48.544Z,61.17
2023-01-28T20:08:20.299Z,65.53
2023-01-28T20:10:51.947Z,61.40
2023-01-28T20:13:23.605Z,65.63
2023-01-28T20:15:55.291Z,63.03
2023-01-28T20:18:28.338Z,67.90
2023-01-28T20:21:00.139Z,69.13
2023-01-28T20:23:31.904Z,64.17
2023-01-28T20:26:03.668Z,79.43
2023-01-28T20:28:35.378Z,64.27
2023-01-28T20:31:08.000Z,72.60
2023-01-28T20:33:41.059Z,67.80
2023-01-28T20:36:13.364Z,70.33
2023-01-28T20:38:46.778Z,66.60
2023-01-28T20:41:19.675Z,66.83
2023-01-28T20:43:51.951Z,69.73
2023-01-28T20:46:24.720Z,74.83
2023-01-28T20:48:58.748Z,64.07
2023-01-28T20:51:30.982Z,75.23
2023-01-28T20:54:02.688Z,70.87
2023-01-28T20:56:34.349Z,69.00
2023-01-28T20:59:06.192Z,69.13
2023-01-28T21:01:37.921Z,75.87
2023-01-28T21:04:11.088Z,69.70
2023-01-28T21:06:42.773Z,84.73
2023-01-28T21:09:14.446Z,85.00
2023-01-28T21:11:46.115Z,82.57
2023-01-28T21:14:17.799Z,79.13
2023-01-28T21:16:49.492Z,86.17
2023-01-28T21:19:22.599Z,82.43
2023-01-28T21:21:54.258Z,87.77
2023-01-28T21:24:25.978Z,78.40
2023-01-28T21:26:57.662Z,82.90
2023-01-28T21:29:29.338Z,78.50
2023-01-28T21:32:01.018Z,78.00
2023-01-28T21:34:34.064Z,76.97
2023-01-28T21:37:05.721Z,70.83
2023-01-28T21:39:37.392Z,78.23
2023-01-28T21:42:09.041Z,77.67
2023-01-28T21:44:40.703Z,82.17
2023-01-28T21:47:12.415Z,93.03
2023-01-28T21:49:45.452Z,96.37
2023-01-28T21:52:17.092Z,97.53
2023-01-28T21:54:48.787Z,94.07
2023-01-28T21:57:20.453Z,93.63
2023-01-28T21:59:52.111Z,94.37
2023-01-28T22:02:24.158Z,95.83
2023-01-28T22:04:57.261Z,103.70
2023-01-28T22:07:28.909Z,102.83
2023-01-28T22:10:00.608Z,105.63
2023-01-28T22:12:32.264Z,103.03
2023-01-28T22:15:04.548Z,120.27
2023-01-28T22:17:36.256Z,116.67
2023-01-28T22:20:11.166Z,118.87
2023-01-28T22:22:42.820Z,124.93
2023-01-28T22:25:14.669Z,119.97
2023-01-28T22:27:46.341Z,126.53
2023-01-28T22:30:18.681Z,122.40
2023-01-28T22:32:50.364Z,120.40
2023-01-28T22:35:23.400Z,108.50
2023-01-28T22:37:55.068Z,103.33
2023-01-28T22:40:26.731Z,92.80
2023-01-28T22:42:58.390Z,101.87
2023-01-28T22:45:30.056Z,98.83
2023-01-28T22:48:01.756Z,97.73
2023-01-28T22:50:34.796Z,97.03
2023-01-28T22:53:06.471Z,101.83
2023-01-28T22:55:38.135Z,82.73
2023-01-28T22:58:09.802Z,98.80
